sensor_id;sensor_type;location;lat;lon;timestamp;P1;durP1;ratioP1;P2;durP2;ratioP2
59922;SDS011;45778;51.142;3.732;2023-05-14T00:01:15;70.03;;;38.15;;
59922;SDS011;45778;51.142;3.732;2023-05-14T00:03:40;65.25;;;38.40;;
59922;SDS011;45778;51.142;3.732;2023-05-14T00:06:06;77.20;;;37.47;;
59922;SDS011;45778;51.142;3.732;2023-05-14T00:08:33;84.10;;;38.45;;
59922;SDS011;45778;51.142;3.732;2023-05-14T00:10:59;76.50;;;38.38;;
59922;SDS011;45778;51.142;3.732;2023-05-14T00:13:24;72.40;;;38.70;;
59922;SDS011;45778;51.142;3.732;2023-05-14T00:15:50;77.90;;;37.75;;
59922;SDS011;45778;51.142;3.732;2023-05-14T00:18:16;76.75;;;37.35;;
59922;SDS011;45778;51.142;3.732;2023-05-14T00:20:42;77.50;;;37.25;;
59922;SDS011;45778;51.142;3.732;2023-05-14T00:23:07;68.68;;;36.40;;
59922;SDS011;45778;51.142;3.732;2023-05-14T00:25:33;67.10;;;37.38;;
59922;SDS011;45778;51.142;3.732;2023-05-14T00:27:59;71.03;;;36.55;;
59922;SDS011;45778;51.142;3.732;2023-05-14T00:30:24;62.17;;;32.97;;
59922;SDS011;45778;51.142;3.732;2023-05-14T00:32:50;60.58;;;35.00;;
59922;SDS011;45778;51.142;3.732;2023-05-14T00:35:16;65.07;;;32.97;;
59922;SDS011;45778;51.142;3.732;2023-05-14T00:37:41;64.93;;;34.38;;
59922;SDS011;45778;51.142;3.732;2023-05-14T00:40:07;64.22;;;33.70;;
59922;SDS011;45778;51.142;3.732;2023-05-14T00:42:35;67.47;;;33.47;;
59922;SDS011;45778;51.142;3.732;2023-05-14T00:45:01;74.20;;;35.78;;
59922;SDS011;45778;51.142;3.732;2023-05-14T00:47:27;69.63;;;36.15;;
59922;SDS011;45778;51.142;3.732;2023-05-14T00:49:52;69.35;;;35.67;;
59922;SDS011;45778;51.142;3.732;2023-05-14T00:52:18;68.95;;;35.15;;
59922;SDS011;45778;51.142;3.732;2023-05-14T00:54:45;63.67;;;29.45;;
59922;SDS011;45778;51.142;3.732;2023-05-14T00:57:12;72.18;;;34.25;;
59922;SDS011;45778;51.142;3.732;2023-05-14T00:59:37;62.05;;;33.00;;
59922;SDS011;45778;51.142;3.732;2023-05-14T01:02:05;67.78;;;35.47;;
59922;SDS011;45778;51.142;3.732;2023-05-14T01:04:31;73.28;;;33.53;;
59922;SDS011;45778;51.142;3.732;2023-05-14T01:12:28;64.43;;;34.70;;
59922;SDS011;45778;51.142;3.732;2023-05-14T01:15:21;62.63;;;31.05;;
59922;SDS011;45778;51.142;3.732;2023-05-14T01:17:53;68.90;;;35.75;;
59922;SDS011;45778;51.142;3.732;2023-05-14T01:20:21;62.00;;;33.67;;
59922;SDS011;45778;51.142;3.732;2023-05-14T01:22:47;61.95;;;35.53;;
59922;SDS011;45778;51.142;3.732;2023-05-14T01:25:13;72.80;;;38.17;;
59922;SDS011;45778;51.142;3.732;2023-05-14T01:27:48;75.05;;;35.33;;
59922;SDS011;45778;51.142;3.732;2023-05-14T01:32:57;61.90;;;33.42;;
59922;SDS011;45778;51.142;3.732;2023-05-14T01:35:28;63.40;;;33.20;;
59922;SDS011;45778;51.142;3.732;2023-05-14T01:37:55;69.82;;;36.97;;
59922;SDS011;45778;51.142;3.732;2023-05-14T01:40:22;63.08;;;35.15;;
59922;SDS011;45778;51.142;3.732;2023-05-14T01:42:49;65.97;;;35.97;;
59922;SDS011;45778;51.142;3.732;2023-05-14T01:45:21;73.38;;;36.08;;
59922;SDS011;45778;51.142;3.732;2023-05-14T01:47:48;62.30;;;33.80;;
59922;SDS011;45778;51.142;3.732;2023-05-14T01:50:14;62.90;;;36.00;;
59922;SDS011;45778;51.142;3.732;2023-05-14T01:52:40;72.53;;;36.55;;
59922;SDS011;45778;51.142;3.732;2023-05-14T01:55:06;66.70;;;35.03;;
59922;SDS011;45778;51.142;3.732;2023-05-14T01:57:32;66.63;;;34.95;;
59922;SDS011;45778;51.142;3.732;2023-05-14T01:59:58;60.92;;;35.00;;
59922;SDS011;45778;51.142;3.732;2023-05-14T02:02:23;60.63;;;32.45;;
59922;SDS011;45778;51.142;3.732;2023-05-14T02:04:50;67.47;;;32.72;;
59922;SDS011;45778;51.142;3.732;2023-05-14T02:07:16;68.05;;;32.63;;
59922;SDS011;45778;51.142;3.732;2023-05-14T02:09:42;62.40;;;33.20;;
59922;SDS011;45778;51.142;3.732;2023-05-14T02:12:08;62.53;;;29.90;;
59922;SDS011;45778;51.142;3.732;2023-05-14T02:14:35;65.18;;;32.33;;
59922;SDS011;45778;51.142;3.732;2023-05-14T02:17:01;64.72;;;33.70;;
59922;SDS011;45778;51.142;3.732;2023-05-14T02:19:27;63.88;;;30.95;;
59922;SDS011;45778;51.142;3.732;2023-05-14T02:21:53;67.95;;;34.15;;
59922;SDS011;45778;51.142;3.732;2023-05-14T02:24:19;67.07;;;32.33;;
59922;SDS011;45778;51.142;3.732;2023-05-14T02:26:45;63.05;;;32.72;;
59922;SDS011;45778;51.142;3.732;2023-05-14T02:29:11;68.60;;;32.45;;
59922;SDS011;45778;51.142;3.732;2023-05-14T02:31:37;74.00;;;36.47;;
59922;SDS011;45778;51.142;3.732;2023-05-14T02:34:03;64.70;;;33.03;;
59922;SDS011;45778;51.142;3.732;2023-05-14T02:36:32;58.03;;;29.40;;
59922;SDS011;45778;51.142;3.732;2023-05-14T02:38:58;67.97;;;34.95;;
59922;SDS011;45778;51.142;3.732;2023-05-14T02:41:28;65.30;;;36.42;;
59922;SDS011;45778;51.142;3.732;2023-05-14T02:43:54;74.22;;;34.95;;
59922;SDS011;45778;51.142;3.732;2023-05-14T02:46:20;69.45;;;34.17;;
59922;SDS011;45778;51.142;3.732;2023-05-14T02:48:45;73.93;;;35.88;;
59922;SDS011;45778;51.142;3.732;2023-05-14T02:51:11;73.13;;;36.33;;
59922;SDS011;45778;51.142;3.732;2023-05-14T02:53:37;71.95;;;35.88;;
59922;SDS011;45778;51.142;3.732;2023-05-14T02:56:02;65.38;;;33.03;;
59922;SDS011;45778;51.142;3.732;2023-05-14T02:58:28;72.88;;;35.05;;
59922;SDS011;45778;51.142;3.732;2023-05-14T03:00:54;68.93;;;32.83;;
59922;SDS011;45778;51.142;3.732;2023-05-14T03:03:20;65.70;;;33.67;;
59922;SDS011;45778;51.142;3.732;2023-05-14T03:05:45;67.47;;;33.25;;
59922;SDS011;45778;51.142;3.732;2023-05-14T03:08:11;67.03;;;34.45;;
59922;SDS011;45778;51.142;3.732;2023-05-14T03:10:37;65.95;;;32.58;;
59922;SDS011;45778;51.142;3.732;2023-05-14T03:13:02;66.03;;;32.40;;
59922;SDS011;45778;51.142;3.732;2023-05-14T03:15:28;66.03;;;32.40;;
59922;SDS011;45778;51.142;3.732;2023-05-14T03:17:54;65.25;;;32.33;;
59922;SDS011;45778;51.142;3.732;2023-05-14T03:20:19;63.30;;;34.33;;
59922;SDS011;45778;51.142;3.732;2023-05-14T03:22:46;61.67;;;33.05;;
59922;SDS011;45778;51.142;3.732;2023-05-14T03:25:11;70.05;;;32.80;;
59922;SDS011;45778;51.142;3.732;2023-05-14T03:27:37;64.63;;;33.83;;
59922;SDS011;45778;51.142;3.732;2023-05-14T03:30:03;62.47;;;34.75;;
59922;SDS011;45778;51.142;3.732;2023-05-14T03:32:29;64.05;;;33.47;;
59922;SDS011;45778;51.142;3.732;2023-05-14T03:34:55;73.57;;;34.05;;
59922;SDS011;45778;51.142;3.732;2023-05-14T03:37:21;63.63;;;35.05;;
59922;SDS011;45778;51.142;3.732;2023-05-14T03:39:46;62.97;;;32.25;;
59922;SDS011;45778;51.142;3.732;2023-05-14T03:42:12;62.42;;;33.33;;
59922;SDS011;45778;51.142;3.732;2023-05-14T03:44:38;65.68;;;34.28;;
59922;SDS011;45778;51.142;3.732;2023-05-14T03:47:04;63.55;;;33.63;;
59922;SDS011;45778;51.142;3.732;2023-05-14T03:49:29;71.13;;;35.63;;
59922;SDS011;45778;51.142;3.732;2023-05-14T03:51:55;70.82;;;35.50;;
59922;SDS011;45778;51.142;3.732;2023-05-14T03:54:23;68.80;;;34.47;;
59922;SDS011;45778;51.142;3.732;2023-05-14T03:56:49;68.47;;;34.33;;
59922;SDS011;45778;51.142;3.732;2023-05-14T03:59:15;69.90;;;35.00;;
59922;SDS011;45778;51.142;3.732;2023-05-14T04:01:40;71.93;;;35.17;;
59922;SDS011;45778;51.142;3.732;2023-05-14T04:04:07;76.57;;;37.80;;
59922;SDS011;45778;51.142;3.732;2023-05-14T04:06:33;73.35;;;37.30;;
59922;SDS011;45778;51.142;3.732;2023-05-14T04:08:58;69.45;;;35.13;;
59922;SDS011;45778;51.142;3.732;2023-05-14T04:11:24;68.13;;;37.00;;
59922;SDS011;45778;51.142;3.732;2023-05-14T04:13:50;71.72;;;36.70;;
59922;SDS011;45778;51.142;3.732;2023-05-14T04:16:16;82.45;;;37.60;;
59922;SDS011;45778;51.142;3.732;2023-05-14T04:18:41;75.60;;;35.78;;
59922;SDS011;45778;51.142;3.732;2023-05-14T04:21:07;74.80;;;36.92;;
59922;SDS011;45778;51.142;3.732;2023-05-14T04:23:32;67.63;;;34.80;;
59922;SDS011;45778;51.142;3.732;2023-05-14T04:25:58;69.60;;;36.90;;
59922;SDS011;45778;51.142;3.732;2023-05-14T04:28:24;77.25;;;37.30;;
59922;SDS011;45778;51.142;3.732;2023-05-14T04:30:49;59.47;;;32.22;;
59922;SDS011;45778;51.142;3.732;2023-05-14T04:33:15;68.97;;;35.30;;
59922;SDS011;45778;51.142;3.732;2023-05-14T04:35:42;63.70;;;34.08;;
59922;SDS011;45778;51.142;3.732;2023-05-14T04:38:09;78.35;;;37.28;;
59922;SDS011;45778;51.142;3.732;2023-05-14T04:40:35;72.25;;;38.47;;
59922;SDS011;45778;51.142;3.732;2023-05-14T04:43:01;56.30;;;32.78;;
59922;SDS011;45778;51.142;3.732;2023-05-14T04:45:27;66.72;;;37.58;;
59922;SDS011;45778;51.142;3.732;2023-05-14T04:47:52;65.43;;;36.72;;
59922;SDS011;45778;51.142;3.732;2023-05-14T04:50:18;69.63;;;38.83;;
59922;SDS011;45778;51.142;3.732;2023-05-14T04:52:44;72.15;;;39.15;;
59922;SDS011;45778;51.142;3.732;2023-05-14T04:55:09;66.68;;;38.95;;
59922;SDS011;45778;51.142;3.732;2023-05-14T04:57:35;71.05;;;38.42;;
59922;SDS011;45778;51.142;3.732;2023-05-14T05:00:01;66.68;;;38.42;;
59922;SDS011;45778;51.142;3.732;2023-05-14T05:02:29;63.45;;;37.55;;
59922;SDS011;45778;51.142;3.732;2023-05-14T05:04:55;69.25;;;38.78;;
59922;SDS011;45778;51.142;3.732;2023-05-14T05:07:20;58.50;;;35.90;;
59922;SDS011;45778;51.142;3.732;2023-05-14T05:09:46;61.90;;;35.58;;
59922;SDS011;45778;51.142;3.732;2023-05-14T05:12:12;66.32;;;35.22;;
59922;SDS011;45778;51.142;3.732;2023-05-14T05:14:37;60.33;;;33.53;;
59922;SDS011;45778;51.142;3.732;2023-05-14T05:17:03;53.35;;;32.53;;
59922;SDS011;45778;51.142;3.732;2023-05-14T05:19:29;56.42;;;32.15;;
59922;SDS011;45778;51.142;3.732;2023-05-14T05:21:54;56.75;;;32.85;;
59922;SDS011;45778;51.142;3.732;2023-05-14T05:24:20;49.83;;;29.58;;
59922;SDS011;45778;51.142;3.732;2023-05-14T05:26:46;47.10;;;29.83;;
59922;SDS011;45778;51.142;3.732;2023-05-14T05:29:11;47.08;;;29.50;;
59922;SDS011;45778;51.142;3.732;2023-05-14T05:31:37;56.17;;;30.75;;
59922;SDS011;45778;51.142;3.732;2023-05-14T05:34:03;48.90;;;28.20;;
59922;SDS011;45778;51.142;3.732;2023-05-14T05:36:28;41.60;;;27.35;;
59922;SDS011;45778;51.142;3.732;2023-05-14T05:38:54;48.22;;;27.35;;
59922;SDS011;45778;51.142;3.732;2023-05-14T05:41:20;43.97;;;28.40;;
59922;SDS011;45778;51.142;3.732;2023-05-14T05:43:46;41.10;;;25.13;;
59922;SDS011;45778;51.142;3.732;2023-05-14T05:46:12;46.15;;;24.08;;
59922;SDS011;45778;51.142;3.732;2023-05-14T05:48:37;44.25;;;25.27;;
59922;SDS011;45778;51.142;3.732;2023-05-14T05:51:03;43.67;;;24.92;;
59922;SDS011;45778;51.142;3.732;2023-05-14T05:53:29;39.08;;;25.48;;
59922;SDS011;45778;51.142;3.732;2023-05-14T05:55:54;40.10;;;24.75;;
59922;SDS011;45778;51.142;3.732;2023-05-14T05:58:20;49.70;;;28.50;;
59922;SDS011;45778;51.142;3.732;2023-05-14T06:00:46;44.53;;;26.45;;
59922;SDS011;45778;51.142;3.732;2023-05-14T06:03:11;44.83;;;25.83;;
59922;SDS011;45778;51.142;3.732;2023-05-14T06:05:37;47.38;;;26.08;;
59922;SDS011;45778;51.142;3.732;2023-05-14T06:08:04;42.60;;;26.38;;
59922;SDS011;45778;51.142;3.732;2023-05-14T06:10:30;44.45;;;27.35;;
59922;SDS011;45778;51.142;3.732;2023-05-14T06:12:56;44.85;;;28.08;;
59922;SDS011;45778;51.142;3.732;2023-05-14T06:15:22;43.05;;;28.50;;
59922;SDS011;45778;51.142;3.732;2023-05-14T06:17:47;43.78;;;27.83;;
59922;SDS011;45778;51.142;3.732;2023-05-14T06:20:13;51.17;;;30.27;;
59922;SDS011;45778;51.142;3.732;2023-05-14T06:22:39;47.20;;;29.25;;
59922;SDS011;45778;51.142;3.732;2023-05-14T06:25:05;41.80;;;27.20;;
59922;SDS011;45778;51.142;3.732;2023-05-14T06:27:31;47.03;;;27.98;;
59922;SDS011;45778;51.142;3.732;2023-05-14T06:29:57;42.38;;;28.30;;
59922;SDS011;45778;51.142;3.732;2023-05-14T06:32:23;46.60;;;29.42;;
59922;SDS011;45778;51.142;3.732;2023-05-14T06:34:48;44.38;;;29.15;;
59922;SDS011;45778;51.142;3.732;2023-05-14T06:37:14;38.63;;;24.73;;
59922;SDS011;45778;51.142;3.732;2023-05-14T06:39:39;39.42;;;26.77;;
59922;SDS011;45778;51.142;3.732;2023-05-14T06:42:12;40.08;;;27.02;;
59922;SDS011;45778;51.142;3.732;2023-05-14T06:44:37;37.20;;;25.60;;
59922;SDS011;45778;51.142;3.732;2023-05-14T06:47:03;42.10;;;26.20;;
59922;SDS011;45778;51.142;3.732;2023-05-14T06:49:32;38.05;;;24.02;;
59922;SDS011;45778;51.142;3.732;2023-05-14T06:51:58;41.50;;;25.42;;
59922;SDS011;45778;51.142;3.732;2023-05-14T06:54:24;45.15;;;27.23;;
59922;SDS011;45778;51.142;3.732;2023-05-14T06:56:50;36.83;;;25.50;;
59922;SDS011;45778;51.142;3.732;2023-05-14T06:59:15;36.10;;;24.73;;
59922;SDS011;45778;51.142;3.732;2023-05-14T07:01:41;37.75;;;25.60;;
59922;SDS011;45778;51.142;3.732;2023-05-14T07:04:07;39.67;;;26.27;;
59922;SDS011;45778;51.142;3.732;2023-05-14T07:06:32;40.53;;;27.70;;
59922;SDS011;45778;51.142;3.732;2023-05-14T07:08:59;37.60;;;25.52;;
59922;SDS011;45778;51.142;3.732;2023-05-14T07:11:25;36.58;;;25.65;;
59922;SDS011;45778;51.142;3.732;2023-05-14T07:13:51;41.60;;;26.63;;
59922;SDS011;45778;51.142;3.732;2023-05-14T07:16:17;36.38;;;25.85;;
59922;SDS011;45778;51.142;3.732;2023-05-14T07:18:43;39.30;;;27.08;;
59922;SDS011;45778;51.142;3.732;2023-05-14T07:21:09;41.53;;;25.75;;
59922;SDS011;45778;51.142;3.732;2023-05-14T07:23:35;40.83;;;26.10;;
59922;SDS011;45778;51.142;3.732;2023-05-14T07:26:02;44.00;;;27.58;;
59922;SDS011;45778;51.142;3.732;2023-05-14T07:28:31;41.33;;;25.85;;
59922;SDS011;45778;51.142;3.732;2023-05-14T07:30:57;37.63;;;26.98;;
59922;SDS011;45778;51.142;3.732;2023-05-14T07:33:23;38.83;;;26.60;;
59922;SDS011;45778;51.142;3.732;2023-05-14T07:35:49;33.50;;;24.77;;
59922;SDS011;45778;51.142;3.732;2023-05-14T07:38:16;41.17;;;27.90;;
59922;SDS011;45778;51.142;3.732;2023-05-14T07:40:42;38.50;;;25.90;;
59922;SDS011;45778;51.142;3.732;2023-05-14T07:43:08;34.40;;;26.15;;
59922;SDS011;45778;51.142;3.732;2023-05-14T07:45:37;36.28;;;22.70;;
59922;SDS011;45778;51.142;3.732;2023-05-14T07:48:04;34.78;;;22.88;;
59922;SDS011;45778;51.142;3.732;2023-05-14T07:50:29;37.28;;;25.33;;
59922;SDS011;45778;51.142;3.732;2023-05-14T07:52:55;39.50;;;25.42;;
59922;SDS011;45778;51.142;3.732;2023-05-14T07:55:21;34.38;;;23.45;;
59922;SDS011;45778;51.142;3.732;2023-05-14T07:57:47;34.03;;;24.08;;
59922;SDS011;45778;51.142;3.732;2023-05-14T08:00:13;33.88;;;24.23;;
59922;SDS011;45778;51.142;3.732;2023-05-14T08:02:39;33.67;;;23.65;;
59922;SDS011;45778;51.142;3.732;2023-05-14T08:05:06;36.30;;;25.20;;
59922;SDS011;45778;51.142;3.732;2023-05-14T08:07:33;34.97;;;24.63;;
59922;SDS011;45778;51.142;3.732;2023-05-14T08:09:58;30.15;;;23.42;;
59922;SDS011;45778;51.142;3.732;2023-05-14T08:12:24;30.55;;;21.58;;
59922;SDS011;45778;51.142;3.732;2023-05-14T08:14:50;36.20;;;24.33;;
59922;SDS011;45778;51.142;3.732;2023-05-14T08:17:16;30.55;;;23.00;;
59922;SDS011;45778;51.142;3.732;2023-05-14T08:19:42;29.67;;;21.88;;
59922;SDS011;45778;51.142;3.732;2023-05-14T08:22:07;26.52;;;21.10;;
59922;SDS011;45778;51.142;3.732;2023-05-14T08:24:33;31.20;;;22.25;;
59922;SDS011;45778;51.142;3.732;2023-05-14T08:26:59;33.55;;;22.92;;
59922;SDS011;45778;51.142;3.732;2023-05-14T08:29:24;28.30;;;22.75;;
59922;SDS011;45778;51.142;3.732;2023-05-14T08:31:50;31.10;;;23.13;;
59922;SDS011;45778;51.142;3.732;2023-05-14T08:34:16;34.17;;;23.38;;
59922;SDS011;45778;51.142;3.732;2023-05-14T08:36:42;33.05;;;24.33;;
59922;SDS011;45778;51.142;3.732;2023-05-14T08:39:07;34.15;;;24.30;;
59922;SDS011;45778;51.142;3.732;2023-05-14T08:41:33;30.50;;;22.77;;
59922;SDS011;45778;51.142;3.732;2023-05-14T08:44:06;31.50;;;22.95;;
59922;SDS011;45778;51.142;3.732;2023-05-14T08:46:35;26.58;;;19.88;;
59922;SDS011;45778;51.142;3.732;2023-05-14T08:51:39;27.88;;;21.02;;
59922;SDS011;45778;51.142;3.732;2023-05-14T08:54:04;24.90;;;20.42;;
59922;SDS011;45778;51.142;3.732;2023-05-14T08:56:33;22.95;;;17.98;;
59922;SDS011;45778;51.142;3.732;2023-05-14T08:59:00;22.48;;;16.90;;
59922;SDS011;45778;51.142;3.732;2023-05-14T09:01:26;26.10;;;19.52;;
59922;SDS011;45778;51.142;3.732;2023-05-14T09:03:53;22.95;;;16.92;;
59922;SDS011;45778;51.142;3.732;2023-05-14T09:06:19;24.42;;;16.25;;
59922;SDS011;45778;51.142;3.732;2023-05-14T09:08:46;23.48;;;16.67;;
59922;SDS011;45778;51.142;3.732;2023-05-14T09:11:12;19.48;;;15.35;;
59922;SDS011;45778;51.142;3.732;2023-05-14T09:13:37;20.42;;;15.52;;
59922;SDS011;45778;51.142;3.732;2023-05-14T09:16:03;18.63;;;15.48;;
59922;SDS011;45778;51.142;3.732;2023-05-14T09:18:29;22.05;;;14.52;;
59922;SDS011;45778;51.142;3.732;2023-05-14T09:20:55;18.92;;;14.40;;
59922;SDS011;45778;51.142;3.732;2023-05-14T09:23:23;19.08;;;13.73;;
59922;SDS011;45778;51.142;3.732;2023-05-14T09:25:50;21.38;;;14.80;;
59922;SDS011;45778;51.142;3.732;2023-05-14T09:28:16;18.55;;;14.35;;
59922;SDS011;45778;51.142;3.732;2023-05-14T09:30:46;20.23;;;14.85;;
59922;SDS011;45778;51.142;3.732;2023-05-14T09:33:24;18.83;;;13.85;;
59922;SDS011;45778;51.142;3.732;2023-05-14T09:35:53;17.90;;;14.65;;
59922;SDS011;45778;51.142;3.732;2023-05-14T09:38:26;18.88;;;14.20;;
59922;SDS011;45778;51.142;3.732;2023-05-14T09:40:53;20.30;;;15.70;;
59922;SDS011;45778;51.142;3.732;2023-05-14T09:43:20;16.50;;;13.20;;
59922;SDS011;45778;51.142;3.732;2023-05-14T09:45:45;18.05;;;13.88;;
59922;SDS011;45778;51.142;3.732;2023-05-14T09:48:11;15.65;;;13.32;;
59922;SDS011;45778;51.142;3.732;2023-05-14T09:50:40;16.80;;;13.73;;
59922;SDS011;45778;51.142;3.732;2023-05-14T09:53:10;18.83;;;12.75;;
59922;SDS011;45778;51.142;3.732;2023-05-14T09:55:36;17.58;;;13.35;;
59922;SDS011;45778;51.142;3.732;2023-05-14T09:58:03;15.95;;;13.85;;
59922;SDS011;45778;51.142;3.732;2023-05-14T10:00:32;15.05;;;12.95;;
59922;SDS011;45778;51.142;3.732;2023-05-14T10:03:00;17.23;;;13.45;;
59922;SDS011;45778;51.142;3.732;2023-05-14T10:05:32;18.17;;;14.38;;
59922;SDS011;45778;51.142;3.732;2023-05-14T10:08:00;17.55;;;14.70;;
59922;SDS011;45778;51.142;3.732;2023-05-14T10:10:29;18.92;;;14.32;;
59922;SDS011;45778;51.142;3.732;2023-05-14T10:12:57;18.15;;;14.52;;
59922;SDS011;45778;51.142;3.732;2023-05-14T10:18:22;21.13;;;15.23;;
59922;SDS011;45778;51.142;3.732;2023-05-14T10:20:54;17.10;;;14.45;;
59922;SDS011;45778;51.142;3.732;2023-05-14T10:23:30;17.80;;;14.52;;
59922;SDS011;45778;51.142;3.732;2023-05-14T10:25:57;16.95;;;13.65;;
59922;SDS011;45778;51.142;3.732;2023-05-14T10:28:23;18.27;;;13.82;;
59922;SDS011;45778;51.142;3.732;2023-05-14T10:30:49;19.63;;;14.20;;
59922;SDS011;45778;51.142;3.732;2023-05-14T10:33:15;16.88;;;13.55;;
59922;SDS011;45778;51.142;3.732;2023-05-14T10:38:31;17.50;;;13.77;;
59922;SDS011;45778;51.142;3.732;2023-05-14T10:40:59;18.00;;;14.48;;
59922;SDS011;45778;51.142;3.732;2023-05-14T10:43:39;20.27;;;14.98;;
59922;SDS011;45778;51.142;3.732;2023-05-14T10:46:06;20.30;;;14.43;;
59922;SDS011;45778;51.142;3.732;2023-05-14T10:48:33;17.65;;;13.15;;
59922;SDS011;45778;51.142;3.732;2023-05-14T10:51:00;17.25;;;13.95;;
59922;SDS011;45778;51.142;3.732;2023-05-14T10:53:33;18.40;;;13.98;;
59922;SDS011;45778;51.142;3.732;2023-05-14T10:56:01;15.75;;;13.35;;
59922;SDS011;45778;51.142;3.732;2023-05-14T10:58:30;18.73;;;14.10;;
59922;SDS011;45778;51.142;3.732;2023-05-14T11:00:59;20.48;;;14.55;;
59922;SDS011;45778;51.142;3.732;2023-05-14T11:03:29;18.02;;;14.98;;
59922;SDS011;45778;51.142;3.732;2023-05-14T11:05:55;20.08;;;13.82;;
59922;SDS011;45778;51.142;3.732;2023-05-14T11:08:22;19.33;;;14.35;;
59922;SDS011;45778;51.142;3.732;2023-05-14T11:10:50;17.77;;;13.75;;
59922;SDS011;45778;51.142;3.732;2023-05-14T11:13:18;19.65;;;14.23;;
59922;SDS011;45778;51.142;3.732;2023-05-14T11:15:44;17.98;;;13.63;;
59922;SDS011;45778;51.142;3.732;2023-05-14T11:18:12;18.52;;;12.98;;
59922;SDS011;45778;51.142;3.732;2023-05-14T11:20:38;20.33;;;13.35;;
59922;SDS011;45778;51.142;3.732;2023-05-14T11:23:04;18.65;;;13.07;;
59922;SDS011;45778;51.142;3.732;2023-05-14T11:25:30;15.88;;;12.20;;
59922;SDS011;45778;51.142;3.732;2023-05-14T11:27:55;14.40;;;12.35;;
59922;SDS011;45778;51.142;3.732;2023-05-14T11:30:25;16.92;;;14.68;;
59922;SDS011;45778;51.142;3.732;2023-05-14T11:32:50;17.00;;;13.57;;
59922;SDS011;45778;51.142;3.732;2023-05-14T11:35:18;18.52;;;14.23;;
59922;SDS011;45778;51.142;3.732;2023-05-14T11:37:52;20.00;;;13.77;;
59922;SDS011;45778;51.142;3.732;2023-05-14T11:40:18;19.13;;;15.00;;
59922;SDS011;45778;51.142;3.732;2023-05-14T11:42:44;19.02;;;14.65;;
59922;SDS011;45778;51.142;3.732;2023-05-14T11:45:10;18.50;;;14.20;;
59922;SDS011;45778;51.142;3.732;2023-05-14T11:47:37;17.42;;;13.98;;
59922;SDS011;45778;51.142;3.732;2023-05-14T11:50:02;18.10;;;13.75;;
59922;SDS011;45778;51.142;3.732;2023-05-14T11:52:28;16.05;;;13.23;;
59922;SDS011;45778;51.142;3.732;2023-05-14T11:54:54;18.75;;;13.30;;
59922;SDS011;45778;51.142;3.732;2023-05-14T11:57:20;18.92;;;12.95;;
59922;SDS011;45778;51.142;3.732;2023-05-14T11:59:48;16.58;;;12.15;;
59922;SDS011;45778;51.142;3.732;2023-05-14T12:02:23;14.43;;;11.85;;
59922;SDS011;45778;51.142;3.732;2023-05-14T12:04:52;13.13;;;11.80;;
59922;SDS011;45778;51.142;3.732;2023-05-14T12:07:18;13.18;;;11.02;;
59922;SDS011;45778;51.142;3.732;2023-05-14T12:09:45;12.98;;;10.45;;
59922;SDS011;45778;51.142;3.732;2023-05-14T12:12:16;12.00;;;8.48;;
59922;SDS011;45778;51.142;3.732;2023-05-14T12:14:44;14.95;;;10.30;;
59922;SDS011;45778;51.142;3.732;2023-05-14T12:17:43;16.25;;;11.27;;
59922;SDS011;45778;51.142;3.732;2023-05-14T12:20:01;12.48;;;9.48;;
59922;SDS011;45778;51.142;3.732;2023-05-14T12:22:28;12.63;;;11.07;;
59922;SDS011;45778;51.142;3.732;2023-05-14T12:24:58;12.77;;;10.05;;
59922;SDS011;45778;51.142;3.732;2023-05-14T12:27:24;15.02;;;10.93;;
59922;SDS011;45778;51.142;3.732;2023-05-14T12:29:58;11.52;;;9.13;;
59922;SDS011;45778;51.142;3.732;2023-05-14T12:32:26;13.18;;;10.20;;
59922;SDS011;45778;51.142;3.732;2023-05-14T12:34:52;13.20;;;10.60;;
59922;SDS011;45778;51.142;3.732;2023-05-14T12:37:17;12.10;;;10.77;;
59922;SDS011;45778;51.142;3.732;2023-05-14T12:39:43;12.45;;;11.13;;
59922;SDS011;45778;51.142;3.732;2023-05-14T12:42:09;13.30;;;10.48;;
59922;SDS011;45778;51.142;3.732;2023-05-14T12:44:34;19.63;;;11.63;;
59922;SDS011;45778;51.142;3.732;2023-05-14T12:47:00;12.95;;;10.38;;
59922;SDS011;45778;51.142;3.732;2023-05-14T12:49:26;11.98;;;9.75;;
59922;SDS011;45778;51.142;3.732;2023-05-14T12:51:51;12.88;;;9.65;;
59922;SDS011;45778;51.142;3.732;2023-05-14T12:54:17;13.80;;;10.43;;
59922;SDS011;45778;51.142;3.732;2023-05-14T12:56:43;13.10;;;10.32;;
59922;SDS011;45778;51.142;3.732;2023-05-14T12:59:08;15.40;;;10.27;;
59922;SDS011;45778;51.142;3.732;2023-05-14T13:01:34;14.52;;;9.30;;
59922;SDS011;45778;51.142;3.732;2023-05-14T13:04:01;14.05;;;9.05;;
59922;SDS011;45778;51.142;3.732;2023-05-14T13:06:27;13.05;;;10.68;;
59922;SDS011;45778;51.142;3.732;2023-05-14T13:08:52;17.35;;;11.63;;
59922;SDS011;45778;51.142;3.732;2023-05-14T13:11:18;19.70;;;11.63;;
59922;SDS011;45778;51.142;3.732;2023-05-14T13:13:45;18.88;;;12.82;;
59922;SDS011;45778;51.142;3.732;2023-05-14T13:16:10;15.00;;;11.40;;
59922;SDS011;45778;51.142;3.732;2023-05-14T13:18:40;19.10;;;11.43;;
59922;SDS011;45778;51.142;3.732;2023-05-14T13:21:06;12.45;;;11.13;;
59922;SDS011;45778;51.142;3.732;2023-05-14T13:23:32;13.73;;;11.30;;
59922;SDS011;45778;51.142;3.732;2023-05-14T13:25:57;15.18;;;11.88;;
59922;SDS011;45778;51.142;3.732;2023-05-14T13:28:23;14.57;;;11.73;;
59922;SDS011;45778;51.142;3.732;2023-05-14T13:31:02;13.27;;;11.23;;
59922;SDS011;45778;51.142;3.732;2023-05-14T13:33:30;16.25;;;11.93;;
59922;SDS011;45778;51.142;3.732;2023-05-14T13:35:56;20.08;;;11.88;;
59922;SDS011;45778;51.142;3.732;2023-05-14T13:38:22;15.85;;;12.60;;
59922;SDS011;45778;51.142;3.732;2023-05-14T13:40:47;12.82;;;11.32;;
59922;SDS011;45778;51.142;3.732;2023-05-14T13:43:13;18.77;;;11.55;;
59922;SDS011;45778;51.142;3.732;2023-05-14T13:45:40;16.77;;;11.43;;
59922;SDS011;45778;51.142;3.732;2023-05-14T13:48:06;17.17;;;10.52;;
59922;SDS011;45778;51.142;3.732;2023-05-14T13:50:32;15.15;;;11.63;;
59922;SDS011;45778;51.142;3.732;2023-05-14T13:52:57;15.32;;;11.48;;
59922;SDS011;45778;51.142;3.732;2023-05-14T13:55:23;13.82;;;11.82;;
59922;SDS011;45778;51.142;3.732;2023-05-14T13:57:49;15.98;;;11.88;;
59922;SDS011;45778;51.142;3.732;2023-05-14T14:00:14;14.70;;;11.63;;
59922;SDS011;45778;51.142;3.732;2023-05-14T14:02:40;17.35;;;11.63;;
59922;SDS011;45778;51.142;3.732;2023-05-14T14:05:06;16.63;;;12.25;;
59922;SDS011;45778;51.142;3.732;2023-05-14T14:07:32;17.60;;;13.45;;
59922;SDS011;45778;51.142;3.732;2023-05-14T14:09:57;13.45;;;11.93;;
59922;SDS011;45778;51.142;3.732;2023-05-14T14:12:25;16.23;;;11.43;;
59922;SDS011;45778;51.142;3.732;2023-05-14T14:14:51;17.45;;;11.82;;
59922;SDS011;45778;51.142;3.732;2023-05-14T14:17:17;15.82;;;11.77;;
59922;SDS011;45778;51.142;3.732;2023-05-14T14:19:43;15.30;;;12.40;;
59922;SDS011;45778;51.142;3.732;2023-05-14T14:22:08;15.30;;;11.35;;
59922;SDS011;45778;51.142;3.732;2023-05-14T14:24:34;13.57;;;10.65;;
59922;SDS011;45778;51.142;3.732;2023-05-14T14:26:59;13.85;;;10.32;;
59922;SDS011;45778;51.142;3.732;2023-05-14T14:29:26;10.30;;;8.90;;
59922;SDS011;45778;51.142;3.732;2023-05-14T14:31:55;12.88;;;8.40;;
59922;SDS011;45778;51.142;3.732;2023-05-14T14:34:20;10.85;;;7.80;;